Latest Weather Observations for Batchelor

IDD60901

Issued at 11:41 pm CST Friday 27 May 2016 (issued every 10 minutes, with the page automatically refreshed every 10 minutes)

About weather observations | Map of Darwin area stations | Latest observations for Darwin area | Other Formats
Station Details ID: 014272 Name: BATCHELOR AIRPORT Lat: -13.05 Lon: 131.03 Height: 104.0 m
Data from the previous 72 hours. | See also: Recent months at Batchelor
Date/Time
CST
Tmp

°C
App
Tmp
°C
Dew
Point
°C
Rel
Hum
%
Delta-T

°C
Wind Press
QNH
hPa
Press
MSL
hPa
Rain
since
9 am
mm
Dir
 
Spd
km/h
Gust
km/h
Spd
kts
Gust
kts
27/11:30pm 24.7 29.4 22.6 88 1.4 NW 2 4 1 2 1013.0 1012.4 0.0
27/11:00pm 24.9 29.7 22.2 85 1.8 CALM 0 0 0 0 1013.1 1012.5 0.0
27/10:30pm 25.3 30.1 22.8 86 1.7 NW 2 2 1 1 1013.1 1012.5 0.0
27/10:00pm 25.4 30.0 22.5 84 2.0 NW 2 4 1 2 1013.2 1012.6 0.0
27/09:30pm 25.9 30.0 23.0 84 2.0 NW 6 7 3 4 1013.1 1012.5 0.0
27/09:00pm 26.4 30.4 23.1 82 2.3 WNW 7 11 4 6 1013.0 1012.4 0.0
27/08:30pm 26.7 30.6 23.0 80 2.5 WNW 7 11 4 6 1012.6 1012.1 0.0
27/08:00pm 27.1 30.6 22.9 78 2.9 NW 9 13 5 7 1012.4 1011.9 0.0
27/07:30pm 27.7 31.6 22.9 75 3.3 WNW 7 11 4 6 1011.8 1011.3 0.0
27/07:00pm 28.2 31.7 22.9 73 3.6 WNW 9 13 5 7 1011.6 1011.1 0.0
27/06:30pm 28.9 31.9 22.6 69 4.3 NW 11 17 6 9 1011.3 1010.8 0.0
27/06:00pm 30.2 33.1 22.4 63 5.3 NW 11 17 6 9 1010.8 1010.3 0.0
27/05:30pm 33.3 34.2 16.2 36 10.8 NNE 6 9 3 5 1010.7 1010.1 0.0
27/05:00pm 35.1 36.5 15.4 30 12.4 WSW 2 6 1 3 1010.5 1009.9 0.0
27/04:30pm 34.7 34.8 14.0 28 12.8 ESE 6 7 3 4 1010.5 1009.9 0.0
27/04:00pm 34.9 35.3 13.7 28 13.0 S 4 9 2 5 1010.6 1010.0 0.0
27/03:30pm 34.8 34.6 13.6 28 13.0 E 7 13 4 7 1010.7 1010.1 0.0
27/03:00pm 35.1 36.3 15.9 31 12.2 N 4 7 2 4 1011.1 1010.6 0.0
27/02:30pm 33.4 33.1 14.5 32 11.7 SE 9 15 5 8 1011.6 1011.1 0.0
27/02:00pm 34.1 34.2 15.5 32 11.7 S 9 17 5 9 1012.0 1011.5 0.0
27/01:30pm 34.5 35.9 17.3 36 11.1 WSW 6 13 3 7 1012.6 1012.1 0.0
27/01:00pm 32.8 34.3 16.6 38 10.3 E 4 6 2 3 1013.3 1012.7 0.0
27/12:30pm 33.3 35.5 18.3 41 9.8 ENE 4 9 2 5 1013.9 1013.3 0.0
27/12:00pm 32.8 34.8 17.8 40 9.7 W 4 7 2 4 1014.2 1013.6 0.0
27/11:30am 32.5 35.6 21.0 50 7.7 E 6 7 3 4 1014.6 1014.0 0.0
27/11:00am 30.7 33.4 20.3 53 6.9 SSE 6 9 3 5 1014.8 1014.2 0.0
27/10:30am 30.0 33.4 21.7 61 5.6 SW 6 9 3 5 1015.2 1014.6 0.0
27/10:00am 28.8 32.4 22.1 67 4.5 W 6 9 3 5 1015.2 1014.6 0.0
27/09:30am 27.6 32.0 23.4 78 2.9 W 6 9 3 5 1015.2 1014.6 0.0
27/09:00am 26.2 31.0 23.5 85 1.9 WSW 4 6 2 3 1015.0 1014.4 0.0
27/08:30am 25.1 30.5 23.3 90 1.2 CALM 0 0 0 0 1014.8 1014.2 0.0
27/08:00am 23.8 29.4 23.5 98 0.2 CALM 0 0 0 0 1014.4 1013.8 0.0
27/07:30am 21.0 24.9 20.3 96 0.5 CALM 0 0 0 0 1014.1 1013.5 0.0
27/07:00am 19.9 23.1 18.9 94 0.6 CALM 0 0 0 0 1013.7 1013.1 0.0
27/06:30am 20.0 23.1 18.7 92 0.8 CALM 0 0 0 0 1013.4 1012.8 0.0
27/06:00am 20.5 23.9 19.3 93 0.8 CALM 0 0 0 0 1013.4 1012.8 0.0
27/05:30am 21.0 24.7 20.0 94 0.6 CALM 0 0 0 0 1013.2 1012.6 0.0
27/05:00am 21.2 25.1 20.4 95 0.5 CALM 0 0 0 0 1012.9 1012.3 0.0
27/04:30am 21.2 25.0 20.2 94 0.6 CALM 0 0 0 0 1012.8 1012.2 0.0
27/04:00am 21.2 25.0 20.2 94 0.6 CALM 0 0 0 0 1012.6 1012.1 0.0
27/03:30am 21.3 25.1 20.1 93 0.8 CALM 0 0 0 0 1012.6 1012.1 0.0
27/03:00am 21.4 25.3 20.4 94 0.6 CALM 0 0 0 0 1012.8 1012.2 0.0
27/02:30am 21.4 25.1 20.0 92 0.9 CALM 0 0 0 0 1013.0 1012.4 0.0
27/02:00am 21.6 25.5 20.4 93 0.8 CALM 0 0 0 0 1013.2 1012.6 0.0
27/01:30am 22.1 26.1 20.6 91 1.0 CALM 0 0 0 0 1013.3 1012.7 0.0
27/01:00am 22.3 26.2 20.4 89 1.2 CALM 0 2 0 1 1013.4 1012.8 0.0
27/12:30am 22.9 26.5 21.2 90 1.1 N 4 4 2 2 1013.6 1013.0 0.0
27/12:00am 23.1 27.1 21.4 90 1.1 WSW 2 6 1 3 1013.6 1013.0 0.0
 
Date/Time
CST
Tmp

°C
App
Tmp
°C
Dew
Point
°C
Rel
Hum
%
Delta-T

°C
Wind Press
QNH
hPa
Press
MSL
hPa
Rain
since
9 am
mm
Dir
 
Spd
km/h
Gust
km/h
Spd
kts
Gust
kts
26/11:30pm 23.6 27.7 21.5 88 1.4 WSW 2 4 1 2 1013.5 1012.9 0.0
26/11:00pm 23.4 27.4 21.3 88 1.4 NW 2 4 1 2 1013.5 1012.9 0.0
26/10:30pm 23.7 27.9 21.0 85 1.8 CALM 0 2 0 1 1013.6 1013.0 0.0
26/10:00pm 24.4 28.1 21.5 84 1.9 NW 4 4 2 2 1013.5 1012.9 0.0
26/09:30pm 25.0 28.7 21.5 81 2.3 NW 4 4 2 2 1013.4 1012.8 0.0
26/09:00pm 26.0 29.8 21.7 77 2.9 WNW 4 6 2 3 1013.2 1012.6 0.0
26/08:30pm 26.6 30.1 21.8 75 3.2 W 6 11 3 6 1013.1 1012.5 0.0
26/08:00pm 27.1 30.6 21.8 73 3.6 WSW 6 9 3 5 1012.6 1012.1 0.0
26/07:30pm 27.6 30.9 21.9 71 3.8 WNW 7 13 4 7 1012.2 1011.7 0.0
26/07:00pm 27.1 30.9 20.2 66 4.5 CALM 0 0 0 0 1011.7 1011.2 0.0
26/06:30pm 28.8 32.7 20.3 60 5.6 CALM 0 0 0 0 1011.5 1011.0 0.0
26/06:00pm 31.6 33.9 18.6 46 8.5 NNE 4 4 2 2 1011.1 1010.6 0.0
26/05:30pm 33.5 35.6 17.2 37 10.5 NNE 2 4 1 2 1010.9 1010.4 0.0
26/05:00pm 33.0 34.2 15.9 35 10.8 NE 4 4 2 2 1010.8 1010.3 0.0
26/04:30pm 34.5 34.4 14.9 31 12.2 ENE 9 15 5 8 1010.7 1010.1 0.0
26/04:00pm 34.4 35.2 14.8 30 12.2 S 4 6 2 3 1010.8 1010.3 0.0
26/03:30pm 33.4 33.9 14.9 32 11.5 SSE 6 11 3 6 1011.1 1010.6 0.0
26/03:00pm 34.1 34.4 15.1 32 11.9 SE 7 13 4 7 1011.2 1010.7 0.0
26/02:30pm 33.0 33.3 15.0 33 11.2 ESE 7 13 4 7 1011.6 1011.1 0.0
26/02:00pm 33.8 33.8 15.3 33 11.6 S 9 15 5 8 1011.9 1011.4 0.0
26/01:30pm 33.3 33.7 16.2 36 10.8 SSE 9 19 5 10 1012.5 1012.0 0.0
26/01:00pm 33.9 35.2 17.6 38 10.5 NE 7 15 4 8 1013.0 1012.4 0.0
26/12:30pm 32.7 33.7 16.9 38 10.1 NNE 7 13 4 7 1013.6 1013.0 0.0
26/12:00pm 33.1 34.9 18.8 42 9.4 ENE 7 13 4 7 1013.9 1013.3 0.0
26/11:30am 32.1 33.9 18.3 44 8.9 E 6 11 3 6 1014.4 1013.8 0.0
26/11:00am 31.7 35.1 20.9 52 7.3 E 4 7 2 4 1014.7 1014.1 0.0
26/10:30am 30.3 34.0 21.4 59 6.0 N 4 6 2 3 1014.9 1014.3 0.0
26/10:00am 29.5 33.3 21.7 63 5.3 ESE 4 6 2 3 1015.1 1014.5 0.0
26/09:30am 27.7 31.9 21.7 70 4.0 S 2 6 1 3 1015.0 1014.4 0.0
26/09:00am 26.5 31.2 22.6 79 2.6 NW 2 6 1 3 1014.9 1014.3 0.0
26/08:30am 25.3 29.8 23.0 87 1.6 NW 4 6 2 3 1014.5 1013.9 0.0
26/08:00am 23.6 28.4 22.8 95 0.5 NW 2 4 1 2 1014.0 1013.4 0.0
26/07:30am 21.3 25.3 20.6 96 0.5 CALM 0 0 0 0 1013.8 1013.2 0.0
26/07:00am 20.7 24.4 19.9 95 0.5 CALM 0 0 0 0 1013.4 1012.8 0.0
26/06:30am 20.9 24.7 20.1 95 0.5 CALM 0 0 0 0 1013.2 1012.6 0.0
26/06:00am 21.4 25.5 20.7 96 0.5 CALM 0 0 0 0 1012.9 1012.3 0.0
26/05:30am 21.4 25.4 20.6 95 0.5 CALM 0 0 0 0 1012.6 1012.1 0.0
26/05:00am 21.6 25.7 20.8 95 0.5 CALM 0 0 0 0 1012.5 1012.0 0.0
26/04:30am 21.7 25.8 20.7 94 0.7 CALM 0 0 0 0 1012.5 1012.0 0.0
26/04:00am 21.8 25.8 20.6 93 0.8 CALM 0 0 0 0 1012.5 1012.0 0.0
26/03:30am 22.0 26.2 21.0 94 0.7 CALM 0 0 0 0 1012.6 1012.1 0.0
26/03:00am 22.1 26.4 21.1 94 0.7 CALM 0 0 0 0 1012.6 1012.1 0.0
26/02:30am 22.5 26.8 21.1 92 0.9 CALM 0 2 0 1 1013.0 1012.4 0.0
26/02:00am 23.1 27.8 21.9 93 0.8 CALM 0 0 0 0 1013.2 1012.6 0.0
26/01:30am 23.3 27.5 21.7 91 1.1 NW 2 4 1 2 1013.2 1012.6 0.0
26/01:00am 23.6 28.3 22.0 91 1.1 CALM 0 0 0 0 1013.4 1012.8 0.0
26/12:30am 23.6 28.3 21.9 90 1.1 CALM 0 0 0 0 1013.4 1012.8 0.0
26/12:00am 23.8 28.6 22.2 91 1.1 CALM 0 0 0 0 1013.4 1012.8 0.0
 
Date/Time
CST
Tmp

°C
App
Tmp
°C
Dew
Point
°C
Rel
Hum
%
Delta-T

°C
Wind Press
QNH
hPa
Press
MSL
hPa
Rain
since
9 am
mm
Dir
 
Spd
km/h
Gust
km/h
Spd
kts
Gust
kts
25/11:30pm 23.8 28.3 21.5 87 1.5 CALM 0 0 0 0 1013.5 1012.9 0.0
25/11:00pm 24.4 29.4 22.5 89 1.3 CALM 0 0 0 0 1013.4 1012.8 0.0
25/10:30pm 24.5 29.2 22.0 86 1.7 CALM 0 0 0 0 1013.4 1012.8 0.0
25/10:00pm 25.0 29.8 22.1 84 1.9 CALM 0 0 0 0 1013.4 1012.8 0.0
25/09:30pm 25.4 30.1 21.9 81 2.3 CALM 0 0 0 0 1013.3 1012.7 0.0
25/09:00pm 26.1 30.6 22.2 79 2.6 NW 2 4 1 2 1013.1 1012.5 0.0
25/08:30pm 26.6 30.4 22.4 78 2.8 WNW 6 7 3 4 1012.8 1012.2 0.0
25/08:00pm 27.1 31.2 22.3 75 3.2 W 4 6 2 3 1012.4 1011.9 0.0
25/07:30pm 27.2 30.2 21.9 73 3.6 NW 9 13 5 7 1011.8 1011.3 0.0
25/07:00pm 27.0 30.3 20.8 69 4.1 N 4 9 2 5 1011.3 1010.8 0.0
25/06:30pm 29.2 33.5 21.2 62 5.4 CALM 0 0 0 0 1010.9 1010.4 0.0
25/06:00pm 31.6 34.6 19.2 47 8.1 N 2 4 1 2 1010.5 1009.9 0.0
25/05:30pm 32.8 35.4 19.3 45 8.9 NNW 4 6 2 3 1010.2 1009.6 0.0
25/05:00pm 33.3 35.8 19.0 42 9.4 WNW 4 6 2 3 1010.0 1009.4 0.0
25/04:30pm 31.0 34.6 21.2 56 6.6 NNW 4 4 2 2 1009.7 1009.1 0.0
25/04:00pm 31.5 34.4 19.8 49 7.7 NE 4 4 2 2 1009.8 1009.2 0.0
25/03:30pm 33.1 35.2 18.1 41 9.7 E 4 9 2 5 1009.8 1009.2 0.0
25/03:00pm 34.1 36.2 18.2 39 10.4 N 4 7 2 4 1010.0 1009.4 0.0
25/02:30pm 33.6 35.5 18.5 40 9.9 ENE 6 7 3 4 1010.3 1009.7 0.0
25/02:00pm 32.7 34.2 18.1 42 9.5 S 7 11 4 6 1010.6 1010.0 0.0
25/01:30pm 32.5 34.1 17.9 41 9.4 SSW 6 7 3 4 1011.2 1010.7 0.0
25/01:00pm 32.7 35.5 19.6 46 8.7 SSW 4 7 2 4 1011.9 1011.4 0.0
25/12:30pm 32.0 33.4 18.6 45 8.7 E 9 17 5 9 1012.3 1011.8 0.0
25/12:00pm 31.9 34.5 20.5 51 7.6 ENE 7 11 4 6 1012.8 1012.2 0.0
25/11:30am 32.0 35.1 21.5 53 7.1 ENE 7 13 4 7 1013.2 1012.6 0.0
25/11:00am 30.5 33.2 21.3 58 6.2 E 9 15 5 8 1013.6 1013.0 0.0
25/10:30am 29.4 31.6 20.3 58 6.0 E 9 15 5 8 1013.9 1013.3 0.0
25/10:00am 29.1 31.0 20.5 59 5.7 E 11 15 6 8 1014.0 1013.4 0.0
25/09:30am 27.6 29.1 19.7 62 5.2 ESE 11 15 6 8 1014.1 1013.5 0.0
25/09:00am 26.2 27.3 19.6 67 4.3 ESE 13 19 7 10 1013.9 1013.3 0.0
25/08:30am 25.6 29.0 21.7 79 2.6 ESE 6 9 3 5 1013.8 1013.2 0.0
25/08:00am 24.4 28.3 21.9 86 1.7 NE 4 6 2 3 1013.5 1012.9 0.0
25/07:30am 23.2 27.0 22.4 95 0.5 NE 6 6 3 3 1013.3 1012.7 0.0
25/07:00am 22.8 26.8 22.1 96 0.5 S 4 6 2 3 1013.0 1012.4 0.0
25/06:30am 23.2 27.5 22.7 97 0.3 SW 4 7 2 4 1012.6 1012.1 0.0
25/06:00am 22.6 26.5 21.8 95 0.5 WSW 4 6 2 3 1012.1 1011.6 0.0
25/05:30am 22.4 26.9 21.6 95 0.5 CALM 0 0 0 0 1011.8 1011.3 0.0
25/05:00am 22.5 27.0 21.5 94 0.7 CALM 0 0 0 0 1011.6 1011.1 0.0
25/04:30am 22.7 27.3 21.7 94 0.7 CALM 0 0 0 0 1011.7 1011.2 0.0
25/04:00am 22.8 27.4 21.8 94 0.7 CALM 0 2 0 1 1011.7 1011.2 0.0
25/03:30am 22.8 27.2 21.4 92 0.9 CALM 0 0 0 0 1011.8 1011.3 0.0
25/03:00am 22.9 27.4 21.5 92 0.9 CALM 0 2 0 1 1012.0 1011.5 0.0
25/02:30am 23.2 27.8 21.8 92 0.9 CALM 0 0 0 0 1012.2 1011.7 0.0
25/02:00am 23.5 28.3 22.1 92 0.9 CALM 0 0 0 0 1012.4 1011.9 0.0
25/01:30am 24.1 29.2 22.7 92 0.9 CALM 0 0 0 0 1012.6 1012.1 0.0
25/01:00am 23.7 28.6 22.3 92 0.9 CALM 0 0 0 0 1012.8 1012.2 0.0
25/12:30am 23.8 28.6 22.2 91 1.1 CALM 0 0 0 0 1012.9 1012.3 0.0
25/12:00am 24.1 29.1 22.5 91 1.1 CALM 0 0 0 0 1013.1 1012.5 0.0

Latest Capital City Observations: Canberra | Sydney | Melbourne | Brisbane | Adelaide | Perth | Hobart | Darwin

Other Formats:

Comma delimited format used in spreadsheet applications
http://www.bom.gov.au/fwo/IDD60901/IDD60901.94125.axf

JavaScript Object Notation format (JSON) in row-major order
http://www.bom.gov.au/fwo/IDD60901/IDD60901.94125.json